sensor_id;sensor_type;location;lat;lon;timestamp;temperature;humidity
1359;DHT22;673;48.098;14.422;2024-03-22T00:01:15;8.60;99.90
1359;DHT22;673;48.098;14.422;2024-03-22T00:03:42;8.60;99.90
1359;DHT22;673;48.098;14.422;2024-03-22T00:06:10;8.60;99.90
1359;DHT22;673;48.098;14.422;2024-03-22T00:08:37;8.70;99.90
1359;DHT22;673;48.098;14.422;2024-03-22T00:11:03;8.70;99.90
1359;DHT22;673;48.098;14.422;2024-03-22T00:13:29;8.70;99.90
1359;DHT22;673;48.098;14.422;2024-03-22T00:15:56;8.60;99.90
1359;DHT22;673;48.098;14.422;2024-03-22T00:18:22;8.60;99.90
1359;DHT22;673;48.098;14.422;2024-03-22T00:20:48;8.60;99.90
1359;DHT22;673;48.098;14.422;2024-03-22T00:23:17;8.60;99.90
1359;DHT22;673;48.098;14.422;2024-03-22T00:25:43;8.50;99.90
1359;DHT22;673;48.098;14.422;2024-03-22T00:28:09;8.40;99.90
1359;DHT22;673;48.098;14.422;2024-03-22T00:30:35;8.30;99.90
1359;DHT22;673;48.098;14.422;2024-03-22T00:33:02;8.30;99.90
1359;DHT22;673;48.098;14.422;2024-03-22T00:35:29;8.20;99.90
1359;DHT22;673;48.098;14.422;2024-03-22T00:37:56;8.10;99.90
1359;DHT22;673;48.098;14.422;2024-03-22T00:40:23;8.10;99.90
1359;DHT22;673;48.098;14.422;2024-03-22T00:42:50;8.10;99.90
1359;DHT22;673;48.098;14.422;2024-03-22T00:45:16;8.10;99.90
1359;DHT22;673;48.098;14.422;2024-03-22T00:47:43;8.00;99.90
1359;DHT22;673;48.098;14.422;2024-03-22T00:50:09;8.10;99.90
1359;DHT22;673;48.098;14.422;2024-03-22T00:52:36;8.10;99.90
1359;DHT22;673;48.098;14.422;2024-03-22T00:55:02;8.10;99.90
1359;DHT22;673;48.098;14.422;2024-03-22T00:57:31;8.00;99.90
1359;DHT22;673;48.098;14.422;2024-03-22T00:59:57;8.10;99.90
1359;DHT22;673;48.098;14.422;2024-03-22T01:02:23;8.10;99.90
1359;DHT22;673;48.098;14.422;2024-03-22T01:04:49;8.10;99.90
1359;DHT22;673;48.098;14.422;2024-03-22T01:07:16;8.10;99.90
1359;DHT22;673;48.098;14.422;2024-03-22T01:09:42;8.00;99.90
1359;DHT22;673;48.098;14.422;2024-03-22T01:12:10;7.90;99.90
1359;DHT22;673;48.098;14.422;2024-03-22T01:14:37;7.80;99.90
1359;DHT22;673;48.098;14.422;2024-03-22T01:17:05;7.70;99.90
1359;DHT22;673;48.098;14.422;2024-03-22T01:19:31;7.60;99.90
1359;DHT22;673;48.098;14.422;2024-03-22T01:21:58;7.50;99.90
1359;DHT22;673;48.098;14.422;2024-03-22T01:24:23;7.40;99.90
1359;DHT22;673;48.098;14.422;2024-03-22T01:26:50;7.30;99.90
1359;DHT22;673;48.098;14.422;2024-03-22T01:29:17;7.30;99.90
1359;DHT22;673;48.098;14.422;2024-03-22T01:31:45;7.30;99.90
1359;DHT22;673;48.098;14.422;2024-03-22T01:34:11;7.20;99.90
1359;DHT22;673;48.098;14.422;2024-03-22T01:36:38;7.20;99.90
1359;DHT22;673;48.098;14.422;2024-03-22T01:39:04;7.20;99.90
1359;DHT22;673;48.098;14.422;2024-03-22T01:41:31;7.30;99.90
1359;DHT22;673;48.098;14.422;2024-03-22T01:43:57;7.20;99.90
1359;DHT22;673;48.098;14.422;2024-03-22T01:46:25;7.20;99.90
1359;DHT22;673;48.098;14.422;2024-03-22T01:48:52;7.20;99.90
1359;DHT22;673;48.098;14.422;2024-03-22T01:51:19;7.20;99.90
1359;DHT22;673;48.098;14.422;2024-03-22T01:53:45;7.10;99.90
1359;DHT22;673;48.098;14.422;2024-03-22T01:56:13;7.00;99.90
1359;DHT22;673;48.098;14.422;2024-03-22T01:58:39;6.90;99.90
1359;DHT22;673;48.098;14.422;2024-03-22T02:01:07;6.90;99.90
1359;DHT22;673;48.098;14.422;2024-03-22T02:03:33;6.90;99.90
1359;DHT22;673;48.098;14.422;2024-03-22T02:06:01;6.90;99.90
1359;DHT22;673;48.098;14.422;2024-03-22T02:08:28;6.80;99.90
1359;DHT22;673;48.098;14.422;2024-03-22T02:10:55;6.80;99.90
1359;DHT22;673;48.098;14.422;2024-03-22T02:13:21;6.80;99.90
1359;DHT22;673;48.098;14.422;2024-03-22T02:15:48;6.70;99.90
1359;DHT22;673;48.098;14.422;2024-03-22T02:18:14;6.70;99.90
1359;DHT22;673;48.098;14.422;2024-03-22T02:20:41;6.70;99.90
1359;DHT22;673;48.098;14.422;2024-03-22T02:23:08;6.60;99.90
1359;DHT22;673;48.098;14.422;2024-03-22T02:25:37;6.60;99.90
1359;DHT22;673;48.098;14.422;2024-03-22T02:28:03;6.50;99.90
1359;DHT22;673;48.098;14.422;2024-03-22T02:30:30;6.50;99.90
1359;DHT22;673;48.098;14.422;2024-03-22T02:32:56;6.50;99.90
1359;DHT22;673;48.098;14.422;2024-03-22T02:35:23;6.60;99.90
1359;DHT22;673;48.098;14.422;2024-03-22T02:37:49;6.60;99.90
1359;DHT22;673;48.098;14.422;2024-03-22T02:40:16;6.60;99.90
1359;DHT22;673;48.098;14.422;2024-03-22T02:42:43;6.70;99.90
1359;DHT22;673;48.098;14.422;2024-03-22T02:45:10;6.70;99.90
1359;DHT22;673;48.098;14.422;2024-03-22T02:47:36;6.80;99.90
1359;DHT22;673;48.098;14.422;2024-03-22T02:50:03;6.80;99.90
1359;DHT22;673;48.098;14.422;2024-03-22T02:52:30;6.80;99.90
1359;DHT22;673;48.098;14.422;2024-03-22T02:54:57;6.80;99.90
1359;DHT22;673;48.098;14.422;2024-03-22T02:57:22;6.80;99.90
1359;DHT22;673;48.098;14.422;2024-03-22T02:59:51;6.80;99.90
1359;DHT22;673;48.098;14.422;2024-03-22T03:02:17;6.90;99.90
1359;DHT22;673;48.098;14.422;2024-03-22T03:04:44;6.90;99.90
1359;DHT22;673;48.098;14.422;2024-03-22T03:07:10;6.90;99.90
1359;DHT22;673;48.098;14.422;2024-03-22T03:09:37;6.90;99.90
1359;DHT22;673;48.098;14.422;2024-03-22T03:12:04;6.90;99.90
1359;DHT22;673;48.098;14.422;2024-03-22T03:14:31;6.90;99.90
1359;DHT22;673;48.098;14.422;2024-03-22T03:16:58;6.90;99.90
1359;DHT22;673;48.098;14.422;2024-03-22T03:19:25;6.80;99.90
1359;DHT22;673;48.098;14.422;2024-03-22T03:21:51;6.80;99.90
1359;DHT22;673;48.098;14.422;2024-03-22T03:24:18;6.80;99.90
1359;DHT22;673;48.098;14.422;2024-03-22T03:26:44;6.80;99.90
1359;DHT22;673;48.098;14.422;2024-03-22T03:29:10;6.60;99.90
1359;DHT22;673;48.098;14.422;2024-03-22T03:31:36;6.50;99.90
1359;DHT22;673;48.098;14.422;2024-03-22T03:34:05;6.40;99.90
1359;DHT22;673;48.098;14.422;2024-03-22T03:36:31;6.40;99.90
1359;DHT22;673;48.098;14.422;2024-03-22T03:38:57;6.30;99.90
1359;DHT22;673;48.098;14.422;2024-03-22T03:41:23;6.30;99.90
1359;DHT22;673;48.098;14.422;2024-03-22T03:43:50;6.30;99.90
1359;DHT22;673;48.098;14.422;2024-03-22T03:46:16;6.20;99.90
1359;DHT22;673;48.098;14.422;2024-03-22T03:48:43;6.20;99.90
1359;DHT22;673;48.098;14.422;2024-03-22T03:51:10;6.20;99.90
1359;DHT22;673;48.098;14.422;2024-03-22T03:53:37;6.10;99.90
1359;DHT22;673;48.098;14.422;2024-03-22T03:56:03;6.00;99.90
1359;DHT22;673;48.098;14.422;2024-03-22T03:58:30;5.90;99.90
1359;DHT22;673;48.098;14.422;2024-03-22T04:00:56;5.80;99.90
1359;DHT22;673;48.098;14.422;2024-03-22T04:03:24;5.80;99.90
1359;DHT22;673;48.098;14.422;2024-03-22T04:05:56;5.70;99.90
1359;DHT22;673;48.098;14.422;2024-03-22T04:08:24;5.70;99.90
1359;DHT22;673;48.098;14.422;2024-03-22T04:10:52;5.60;99.90
1359;DHT22;673;48.098;14.422;2024-03-22T04:13:19;5.50;99.90
1359;DHT22;673;48.098;14.422;2024-03-22T04:15:45;5.50;99.90
1359;DHT22;673;48.098;14.422;2024-03-22T04:18:11;5.50;99.90
1359;DHT22;673;48.098;14.422;2024-03-22T04:20:37;5.40;99.90
1359;DHT22;673;48.098;14.422;2024-03-22T04:23:04;5.30;99.90
1359;DHT22;673;48.098;14.422;2024-03-22T04:25:32;5.40;99.90
1359;DHT22;673;48.098;14.422;2024-03-22T04:28:00;5.40;99.90
1359;DHT22;673;48.098;14.422;2024-03-22T04:30:26;5.40;99.90
1359;DHT22;673;48.098;14.422;2024-03-22T04:32:53;5.30;99.90
1359;DHT22;673;48.098;14.422;2024-03-22T04:35:18;5.30;99.90
1359;DHT22;673;48.098;14.422;2024-03-22T04:37:45;5.30;99.90
1359;DHT22;673;48.098;14.422;2024-03-22T04:40:12;5.30;99.90
1359;DHT22;673;48.098;14.422;2024-03-22T04:42:41;5.30;99.90
1359;DHT22;673;48.098;14.422;2024-03-22T04:45:07;5.30;99.90
1359;DHT22;673;48.098;14.422;2024-03-22T04:47:34;5.20;99.90
1359;DHT22;673;48.098;14.422;2024-03-22T04:50:00;5.30;99.90
1359;DHT22;673;48.098;14.422;2024-03-22T04:52:27;5.30;99.90
1359;DHT22;673;48.098;14.422;2024-03-22T04:54:53;5.40;99.90
1359;DHT22;673;48.098;14.422;2024-03-22T04:57:20;5.50;99.90
1359;DHT22;673;48.098;14.422;2024-03-22T04:59:47;5.70;99.90
1359;DHT22;673;48.098;14.422;2024-03-22T05:02:14;5.70;99.90
1359;DHT22;673;48.098;14.422;2024-03-22T05:04:40;5.60;99.90
1359;DHT22;673;48.098;14.422;2024-03-22T05:07:07;5.60;99.90
1359;DHT22;673;48.098;14.422;2024-03-22T05:09:33;5.60;99.90
1359;DHT22;673;48.098;14.422;2024-03-22T05:12:00;5.70;99.90
1359;DHT22;673;48.098;14.422;2024-03-22T05:14:26;5.80;99.90
1359;DHT22;673;48.098;14.422;2024-03-22T05:16:54;5.80;99.90
1359;DHT22;673;48.098;14.422;2024-03-22T05:19:20;5.80;99.90
1359;DHT22;673;48.098;14.422;2024-03-22T05:21:47;5.80;99.90
1359;DHT22;673;48.098;14.422;2024-03-22T05:24:13;5.80;99.90
1359;DHT22;673;48.098;14.422;2024-03-22T05:26:40;5.80;99.90
1359;DHT22;673;48.098;14.422;2024-03-22T05:29:06;5.80;99.90
1359;DHT22;673;48.098;14.422;2024-03-22T05:31:46;5.70;99.90
1359;DHT22;673;48.098;14.422;2024-03-22T05:34:13;5.70;99.90
1359;DHT22;673;48.098;14.422;2024-03-22T05:36:41;5.80;99.90
1359;DHT22;673;48.098;14.422;2024-03-22T05:39:07;5.80;99.90
1359;DHT22;673;48.098;14.422;2024-03-22T05:41:36;5.90;99.90
1359;DHT22;673;48.098;14.422;2024-03-22T05:44:02;5.80;99.90
1359;DHT22;673;48.098;14.422;2024-03-22T05:46:29;5.80;99.90
1359;DHT22;673;48.098;14.422;2024-03-22T05:48:55;5.70;99.90
1359;DHT22;673;48.098;14.422;2024-03-22T05:51:24;5.80;99.90
1359;DHT22;673;48.098;14.422;2024-03-22T05:53:50;5.90;99.90
1359;DHT22;673;48.098;14.422;2024-03-22T05:56:17;5.90;99.90
1359;DHT22;673;48.098;14.422;2024-03-22T05:58:43;6.10;99.90
1359;DHT22;673;48.098;14.422;2024-03-22T06:01:10;6.20;99.90
1359;DHT22;673;48.098;14.422;2024-03-22T06:03:36;6.40;99.90
1359;DHT22;673;48.098;14.422;2024-03-22T06:06:03;6.50;99.90
1359;DHT22;673;48.098;14.422;2024-03-22T06:08:31;6.70;99.90
1359;DHT22;673;48.098;14.422;2024-03-22T06:11:00;7.00;99.90
1359;DHT22;673;48.098;14.422;2024-03-22T06:13:26;7.10;99.90
1359;DHT22;673;48.098;14.422;2024-03-22T06:15:53;7.20;99.90
1359;DHT22;673;48.098;14.422;2024-03-22T06:18:19;7.30;99.90
1359;DHT22;673;48.098;14.422;2024-03-22T06:20:46;7.30;99.90
1359;DHT22;673;48.098;14.422;2024-03-22T06:23:12;7.40;99.90
1359;DHT22;673;48.098;14.422;2024-03-22T06:25:41;7.50;99.90
1359;DHT22;673;48.098;14.422;2024-03-22T06:28:06;7.60;99.90
1359;DHT22;673;48.098;14.422;2024-03-22T06:30:33;7.70;99.90
1359;DHT22;673;48.098;14.422;2024-03-22T06:32:59;7.80;99.90
1359;DHT22;673;48.098;14.422;2024-03-22T06:35:26;7.90;99.90
1359;DHT22;673;48.098;14.422;2024-03-22T06:37:52;8.00;99.90
1359;DHT22;673;48.098;14.422;2024-03-22T06:40:19;8.10;99.90
1359;DHT22;673;48.098;14.422;2024-03-22T06:42:47;8.00;99.90
1359;DHT22;673;48.098;14.422;2024-03-22T06:45:14;8.20;99.90
1359;DHT22;673;48.098;14.422;2024-03-22T06:47:41;8.30;99.90
1359;DHT22;673;48.098;14.422;2024-03-22T06:50:08;8.50;99.90
1359;DHT22;673;48.098;14.422;2024-03-22T06:52:34;8.60;99.90
1359;DHT22;673;48.098;14.422;2024-03-22T06:55:01;8.70;99.90
1359;DHT22;673;48.098;14.422;2024-03-22T06:57:27;8.90;99.90
1359;DHT22;673;48.098;14.422;2024-03-22T06:59:55;8.90;99.90
1359;DHT22;673;48.098;14.422;2024-03-22T07:02:21;9.00;99.90
1359;DHT22;673;48.098;14.422;2024-03-22T07:04:48;9.20;99.90
1359;DHT22;673;48.098;14.422;2024-03-22T07:07:14;9.20;99.90
1359;DHT22;673;48.098;14.422;2024-03-22T07:09:41;9.30;99.90
1359;DHT22;673;48.098;14.422;2024-03-22T07:12:09;9.30;99.90
1359;DHT22;673;48.098;14.422;2024-03-22T07:14:35;9.40;99.90
1359;DHT22;673;48.098;14.422;2024-03-22T07:17:03;9.40;99.90
1359;DHT22;673;48.098;14.422;2024-03-22T07:19:31;9.40;99.90
1359;DHT22;673;48.098;14.422;2024-03-22T07:21:58;9.60;99.90
1359;DHT22;673;48.098;14.422;2024-03-22T07:24:25;9.80;99.90
1359;DHT22;673;48.098;14.422;2024-03-22T07:26:52;9.80;99.90
1359;DHT22;673;48.098;14.422;2024-03-22T07:29:19;9.90;99.90
1359;DHT22;673;48.098;14.422;2024-03-22T07:31:45;9.90;99.90
1359;DHT22;673;48.098;14.422;2024-03-22T07:34:13;9.90;99.90
1359;DHT22;673;48.098;14.422;2024-03-22T07:36:40;9.80;99.90
1359;DHT22;673;48.098;14.422;2024-03-22T07:39:07;9.80;99.90
1359;DHT22;673;48.098;14.422;2024-03-22T07:41:33;9.90;99.90
1359;DHT22;673;48.098;14.422;2024-03-22T07:44:00;9.90;99.90
1359;DHT22;673;48.098;14.422;2024-03-22T07:46:27;10.00;99.90
1359;DHT22;673;48.098;14.422;2024-03-22T07:48:54;10.00;99.90
1359;DHT22;673;48.098;14.422;2024-03-22T07:51:21;9.90;99.90
1359;DHT22;673;48.098;14.422;2024-03-22T07:53:48;9.90;99.90
1359;DHT22;673;48.098;14.422;2024-03-22T07:56:14;10.10;99.90
1359;DHT22;673;48.098;14.422;2024-03-22T07:58:41;10.40;99.90
1359;DHT22;673;48.098;14.422;2024-03-22T08:01:09;10.40;99.90
1359;DHT22;673;48.098;14.422;2024-03-22T08:03:36;10.40;99.90
1359;DHT22;673;48.098;14.422;2024-03-22T08:06:02;10.60;99.90
1359;DHT22;673;48.098;14.422;2024-03-22T08:08:31;10.60;99.90
1359;DHT22;673;48.098;14.422;2024-03-22T08:10:57;10.60;99.90
1359;DHT22;673;48.098;14.422;2024-03-22T08:13:24;10.70;99.90
1359;DHT22;673;48.098;14.422;2024-03-22T08:15:50;10.90;99.90
1359;DHT22;673;48.098;14.422;2024-03-22T08:18:16;11.10;99.90
1359;DHT22;673;48.098;14.422;2024-03-22T08:20:42;11.10;99.90
1359;DHT22;673;48.098;14.422;2024-03-22T08:23:09;11.20;99.90
1359;DHT22;673;48.098;14.422;2024-03-22T08:25:37;11.30;99.90
1359;DHT22;673;48.098;14.422;2024-03-22T08:28:04;11.20;99.90
1359;DHT22;673;48.098;14.422;2024-03-22T08:30:30;11.10;99.90
1359;DHT22;673;48.098;14.422;2024-03-22T08:32:57;11.10;99.90
1359;DHT22;673;48.098;14.422;2024-03-22T08:35:23;10.90;99.90
1359;DHT22;673;48.098;14.422;2024-03-22T08:37:50;11.00;99.90
1359;DHT22;673;48.098;14.422;2024-03-22T08:40:16;11.00;99.90
1359;DHT22;673;48.098;14.422;2024-03-22T08:42:44;10.80;99.90
1359;DHT22;673;48.098;14.422;2024-03-22T08:45:10;10.80;99.90
1359;DHT22;673;48.098;14.422;2024-03-22T08:47:37;11.10;99.90
1359;DHT22;673;48.098;14.422;2024-03-22T08:50:04;11.10;99.90
1359;DHT22;673;48.098;14.422;2024-03-22T08:52:31;11.20;99.90
1359;DHT22;673;48.098;14.422;2024-03-22T08:54:57;11.50;99.90
1359;DHT22;673;48.098;14.422;2024-03-22T08:57:24;11.60;99.90
1359;DHT22;673;48.098;14.422;2024-03-22T08:59:52;11.70;99.90
1359;DHT22;673;48.098;14.422;2024-03-22T09:02:19;11.80;99.90
1359;DHT22;673;48.098;14.422;2024-03-22T09:04:45;12.10;99.90
1359;DHT22;673;48.098;14.422;2024-03-22T09:07:12;12.10;99.90
1359;DHT22;673;48.098;14.422;2024-03-22T09:09:38;12.00;99.90
1359;DHT22;673;48.098;14.422;2024-03-22T09:12:07;12.00;99.90
1359;DHT22;673;48.098;14.422;2024-03-22T09:14:33;12.20;99.90
1359;DHT22;673;48.098;14.422;2024-03-22T09:17:01;12.40;99.90
1359;DHT22;673;48.098;14.422;2024-03-22T09:19:27;12.50;99.90
1359;DHT22;673;48.098;14.422;2024-03-22T09:21:54;12.70;99.90
1359;DHT22;673;48.098;14.422;2024-03-22T09:24:20;12.70;99.90
1359;DHT22;673;48.098;14.422;2024-03-22T09:26:47;12.70;99.90
1359;DHT22;673;48.098;14.422;2024-03-22T09:29:13;12.70;99.90
1359;DHT22;673;48.098;14.422;2024-03-22T09:31:40;12.90;99.90
1359;DHT22;673;48.098;14.422;2024-03-22T09:34:07;13.00;99.90
1359;DHT22;673;48.098;14.422;2024-03-22T09:36:34;13.00;99.90
1359;DHT22;673;48.098;14.422;2024-03-22T09:39:02;13.20;99.90
1359;DHT22;673;48.098;14.422;2024-03-22T09:41:32;13.40;99.90
1359;DHT22;673;48.098;14.422;2024-03-22T09:43:59;13.50;99.90
1359;DHT22;673;48.098;14.422;2024-03-22T09:46:26;13.60;99.90
1359;DHT22;673;48.098;14.422;2024-03-22T09:48:52;13.80;99.90
1359;DHT22;673;48.098;14.422;2024-03-22T09:51:21;13.90;99.90
1359;DHT22;673;48.098;14.422;2024-03-22T09:53:48;14.00;99.90
1359;DHT22;673;48.098;14.422;2024-03-22T09:56:15;14.00;99.90
1359;DHT22;673;48.098;14.422;2024-03-22T09:58:43;14.10;99.90
1359;DHT22;673;48.098;14.422;2024-03-22T10:01:11;14.20;99.90
1359;DHT22;673;48.098;14.422;2024-03-22T10:03:38;14.20;99.90
1359;DHT22;673;48.098;14.422;2024-03-22T10:06:05;14.20;99.90
1359;DHT22;673;48.098;14.422;2024-03-22T10:08:32;14.20;99.90
1359;DHT22;673;48.098;14.422;2024-03-22T10:11:02;14.20;99.90
1359;DHT22;673;48.098;14.422;2024-03-22T10:13:28;14.30;99.90
1359;DHT22;673;48.098;14.422;2024-03-22T10:15:56;14.40;99.90
1359;DHT22;673;48.098;14.422;2024-03-22T10:18:22;14.40;99.90
1359;DHT22;673;48.098;14.422;2024-03-22T10:20:59;14.30;99.90
1359;DHT22;673;48.098;14.422;2024-03-22T10:23:25;14.30;99.90
1359;DHT22;673;48.098;14.422;2024-03-22T10:25:54;14.10;99.90
1359;DHT22;673;48.098;14.422;2024-03-22T10:28:20;14.20;99.90
1359;DHT22;673;48.098;14.422;2024-03-22T10:30:47;14.30;99.90
1359;DHT22;673;48.098;14.422;2024-03-22T10:33:15;14.30;99.90
1359;DHT22;673;48.098;14.422;2024-03-22T10:35:43;14.40;99.90
1359;DHT22;673;48.098;14.422;2024-03-22T10:38:12;14.70;99.90
1359;DHT22;673;48.098;14.422;2024-03-22T10:40:41;14.60;99.90
1359;DHT22;673;48.098;14.422;2024-03-22T10:43:11;14.70;99.90
1359;DHT22;673;48.098;14.422;2024-03-22T10:45:39;14.70;99.90
1359;DHT22;673;48.098;14.422;2024-03-22T10:48:10;14.70;99.90
1359;DHT22;673;48.098;14.422;2024-03-22T10:50:39;14.60;99.90
1359;DHT22;673;48.098;14.422;2024-03-22T10:53:07;14.90;99.90
1359;DHT22;673;48.098;14.422;2024-03-22T10:55:38;15.10;99.10
1359;DHT22;673;48.098;14.422;2024-03-22T10:58:04;15.30;99.90
1359;DHT22;673;48.098;14.422;2024-03-22T11:00:34;15.00;97.30
1359;DHT22;673;48.098;14.422;2024-03-22T11:03:02;15.00;98.80
1359;DHT22;673;48.098;14.422;2024-03-22T11:05:30;15.10;98.40
1359;DHT22;673;48.098;14.422;2024-03-22T11:07:59;15.20;98.10
1359;DHT22;673;48.098;14.422;2024-03-22T11:10:28;15.20;98.10
1359;DHT22;673;48.098;14.422;2024-03-22T11:12:55;15.20;97.80
1359;DHT22;673;48.098;14.422;2024-03-22T11:15:23;15.20;99.00
1359;DHT22;673;48.098;14.422;2024-03-22T11:17:50;15.40;98.00
1359;DHT22;673;48.098;14.422;2024-03-22T11:20:17;15.70;99.90
1359;DHT22;673;48.098;14.422;2024-03-22T11:22:43;15.90;99.50
1359;DHT22;673;48.098;14.422;2024-03-22T11:25:10;15.70;96.90
1359;DHT22;673;48.098;14.422;2024-03-22T11:27:36;15.80;96.40
1359;DHT22;673;48.098;14.422;2024-03-22T11:30:04;15.90;96.30
1359;DHT22;673;48.098;14.422;2024-03-22T11:32:30;15.70;97.40
1359;DHT22;673;48.098;14.422;2024-03-22T11:34:59;16.00;96.30
1359;DHT22;673;48.098;14.422;2024-03-22T11:37:25;16.30;94.80
1359;DHT22;673;48.098;14.422;2024-03-22T11:39:52;16.20;93.60
1359;DHT22;673;48.098;14.422;2024-03-22T11:42:18;16.20;94.70
1359;DHT22;673;48.098;14.422;2024-03-22T11:44:45;16.20;95.40
1359;DHT22;673;48.098;14.422;2024-03-22T11:47:11;16.40;96.70
1359;DHT22;673;48.098;14.422;2024-03-22T11:49:38;16.50;93.00
1359;DHT22;673;48.098;14.422;2024-03-22T11:52:08;16.60;93.90
1359;DHT22;673;48.098;14.422;2024-03-22T11:54:35;16.50;93.30
1359;DHT22;673;48.098;14.422;2024-03-22T11:57:02;16.60;93.40
1359;DHT22;673;48.098;14.422;2024-03-22T11:59:29;16.40;95.00
1359;DHT22;673;48.098;14.422;2024-03-22T12:01:55;16.30;95.20
1359;DHT22;673;48.098;14.422;2024-03-22T12:04:22;16.30;94.30
1359;DHT22;673;48.098;14.422;2024-03-22T12:06:49;16.30;93.20
1359;DHT22;673;48.098;14.422;2024-03-22T12:09:17;16.10;94.40
1359;DHT22;673;48.098;14.422;2024-03-22T12:11:43;16.30;94.70
1359;DHT22;673;48.098;14.422;2024-03-22T12:14:10;16.30;93.10
1359;DHT22;673;48.098;14.422;2024-03-22T12:16:36;16.30;93.10
1359;DHT22;673;48.098;14.422;2024-03-22T12:19:03;16.40;96.00
1359;DHT22;673;48.098;14.422;2024-03-22T12:21:29;16.70;94.80
1359;DHT22;673;48.098;14.422;2024-03-22T12:23:56;16.60;93.60
1359;DHT22;673;48.098;14.422;2024-03-22T12:26:23;16.50;94.30
1359;DHT22;673;48.098;14.422;2024-03-22T12:28:50;16.40;92.80
1359;DHT22;673;48.098;14.422;2024-03-22T12:31:17;16.40;92.90
1359;DHT22;673;48.098;14.422;2024-03-22T12:33:44;16.60;94.10
1359;DHT22;673;48.098;14.422;2024-03-22T12:36:10;16.70;94.80
1359;DHT22;673;48.098;14.422;2024-03-22T12:38:37;16.80;94.10
1359;DHT22;673;48.098;14.422;2024-03-22T12:41:04;16.70;93.20
1359;DHT22;673;48.098;14.422;2024-03-22T12:43:32;16.80;92.80
1359;DHT22;673;48.098;14.422;2024-03-22T12:45:59;17.00;93.10
1359;DHT22;673;48.098;14.422;2024-03-22T12:48:26;17.10;95.60
1359;DHT22;673;48.098;14.422;2024-03-22T12:50:52;17.20;92.50
1359;DHT22;673;48.098;14.422;2024-03-22T12:53:19;17.30;92.00
1359;DHT22;673;48.098;14.422;2024-03-22T12:55:45;17.40;90.90
1359;DHT22;673;48.098;14.422;2024-03-22T12:58:11;17.20;91.90
1359;DHT22;673;48.098;14.422;2024-03-22T13:00:39;17.20;92.20
1359;DHT22;673;48.098;14.422;2024-03-22T13:03:06;17.10;93.10
1359;DHT22;673;48.098;14.422;2024-03-22T13:05:32;17.20;94.30
1359;DHT22;673;48.098;14.422;2024-03-22T13:07:59;17.20;93.10
1359;DHT22;673;48.098;14.422;2024-03-22T13:10:25;17.20;91.20
1359;DHT22;673;48.098;14.422;2024-03-22T13:12:51;17.20;90.90
1359;DHT22;673;48.098;14.422;2024-03-22T13:15:18;17.20;91.80
1359;DHT22;673;48.098;14.422;2024-03-22T13:17:46;17.10;92.60
1359;DHT22;673;48.098;14.422;2024-03-22T13:20:12;17.00;91.70
1359;DHT22;673;48.098;14.422;2024-03-22T13:22:41;17.00;89.70
1359;DHT22;673;48.098;14.422;2024-03-22T13:25:07;17.00;90.80
1359;DHT22;673;48.098;14.422;2024-03-22T13:27:36;17.00;92.20
1359;DHT22;673;48.098;14.422;2024-03-22T13:30:06;16.90;92.20
1359;DHT22;673;48.098;14.422;2024-03-22T13:32:35;16.90;92.60
1359;DHT22;673;48.098;14.422;2024-03-22T13:35:03;17.00;93.90
1359;DHT22;673;48.098;14.422;2024-03-22T13:37:30;17.20;94.60
1359;DHT22;673;48.098;14.422;2024-03-22T13:39:56;17.30;92.10
1359;DHT22;673;48.098;14.422;2024-03-22T13:42:24;17.40;93.60
1359;DHT22;673;48.098;14.422;2024-03-22T13:44:50;17.30;93.20
1359;DHT22;673;48.098;14.422;2024-03-22T13:47:17;17.30;92.60
1359;DHT22;673;48.098;14.422;2024-03-22T13:49:43;17.30;90.60
1359;DHT22;673;48.098;14.422;2024-03-22T13:52:12;17.30;91.40
1359;DHT22;673;48.098;14.422;2024-03-22T13:54:37;17.30;92.30
1359;DHT22;673;48.098;14.422;2024-03-22T13:57:05;17.40;93.10
1359;DHT22;673;48.098;14.422;2024-03-22T13:59:31;17.30;90.60
1359;DHT22;673;48.098;14.422;2024-03-22T14:02:00;17.40;92.10
1359;DHT22;673;48.098;14.422;2024-03-22T14:04:26;17.20;91.10
1359;DHT22;673;48.098;14.422;2024-03-22T14:06:54;17.10;91.60
1359;DHT22;673;48.098;14.422;2024-03-22T14:09:22;17.10;90.80
1359;DHT22;673;48.098;14.422;2024-03-22T14:11:48;17.10;91.80
1359;DHT22;673;48.098;14.422;2024-03-22T14:14:15;17.40;92.90
1359;DHT22;673;48.098;14.422;2024-03-22T14:16:41;17.30;90.40
1359;DHT22;673;48.098;14.422;2024-03-22T14:19:08;17.10;87.20
1359;DHT22;673;48.098;14.422;2024-03-22T14:21:35;17.10;91.20
1359;DHT22;673;48.098;14.422;2024-03-22T14:24:01;17.20;90.30
1359;DHT22;673;48.098;14.422;2024-03-22T14:26:30;17.00;89.20
1359;DHT22;673;48.098;14.422;2024-03-22T14:28:56;16.80;87.30
1359;DHT22;673;48.098;14.422;2024-03-22T14:31:23;16.80;90.10
1359;DHT22;673;48.098;14.422;2024-03-22T14:33:49;16.80;91.10
1359;DHT22;673;48.098;14.422;2024-03-22T14:36:16;16.90;91.10
1359;DHT22;673;48.098;14.422;2024-03-22T14:38:42;17.00;91.40
1359;DHT22;673;48.098;14.422;2024-03-22T14:41:09;16.70;90.10
1359;DHT22;673;48.098;14.422;2024-03-22T14:43:36;16.60;90.20
1359;DHT22;673;48.098;14.422;2024-03-22T14:46:03;16.60;91.90
1359;DHT22;673;48.098;14.422;2024-03-22T14:48:29;16.80;92.20
1359;DHT22;673;48.098;14.422;2024-03-22T14:50:56;16.70;91.40
1359;DHT22;673;48.098;14.422;2024-03-22T14:53:22;16.80;90.80
1359;DHT22;673;48.098;14.422;2024-03-22T14:55:53;16.70;87.50
1359;DHT22;673;48.098;14.422;2024-03-22T14:58:20;16.70;91.20
1359;DHT22;673;48.098;14.422;2024-03-22T15:00:55;16.60;90.10
1359;DHT22;673;48.098;14.422;2024-03-22T15:03:22;16.70;90.70
1359;DHT22;673;48.098;14.422;2024-03-22T15:05:50;16.60;90.30
1359;DHT22;673;48.098;14.422;2024-03-22T15:08:17;16.40;90.90
1359;DHT22;673;48.098;14.422;2024-03-22T15:10:44;16.20;91.10
1359;DHT22;673;48.098;14.422;2024-03-22T15:13:10;16.30;91.00
1359;DHT22;673;48.098;14.422;2024-03-22T15:15:37;16.30;91.30
1359;DHT22;673;48.098;14.422;2024-03-22T15:18:06;16.30;91.70
1359;DHT22;673;48.098;14.422;2024-03-22T15:20:33;16.30;92.60
1359;DHT22;673;48.098;14.422;2024-03-22T15:22:59;16.30;91.40
1359;DHT22;673;48.098;14.422;2024-03-22T15:25:26;16.30;92.10
1359;DHT22;673;48.098;14.422;2024-03-22T15:27:52;16.30;92.00
1359;DHT22;673;48.098;14.422;2024-03-22T15:30:19;16.20;92.20
1359;DHT22;673;48.098;14.422;2024-03-22T15:32:45;16.10;91.80
1359;DHT22;673;48.098;14.422;2024-03-22T15:35:14;16.00;92.80
1359;DHT22;673;48.098;14.422;2024-03-22T15:37:40;16.00;93.50
1359;DHT22;673;48.098;14.422;2024-03-22T15:40:08;15.80;93.10
1359;DHT22;673;48.098;14.422;2024-03-22T15:42:34;15.70;94.10
1359;DHT22;673;48.098;14.422;2024-03-22T15:45:01;15.70;93.70
1359;DHT22;673;48.098;14.422;2024-03-22T15:47:29;15.60;93.60
1359;DHT22;673;48.098;14.422;2024-03-22T15:49:56;15.50;93.80
1359;DHT22;673;48.098;14.422;2024-03-22T15:52:23;15.40;94.40
1359;DHT22;673;48.098;14.422;2024-03-22T15:54:50;15.40;95.00
1359;DHT22;673;48.098;14.422;2024-03-22T15:57:18;15.40;94.90
1359;DHT22;673;48.098;14.422;2024-03-22T15:59:45;15.50;94.80
1359;DHT22;673;48.098;14.422;2024-03-22T16:02:11;15.60;95.30
1359;DHT22;673;48.098;14.422;2024-03-22T16:04:38;15.70;95.50
1359;DHT22;673;48.098;14.422;2024-03-22T16:07:04;15.90;95.10